createdAt,value
2018-05-23T00:02:35.731Z,8.60
2018-05-23T00:17:37.304Z,8.37
2018-05-23T00:32:36.931Z,8.60
2018-05-23T00:47:36.743Z,9.33
2018-05-23T01:02:35.369Z,9.10
2018-05-23T01:17:34.212Z,9.60
2018-05-23T01:32:34.196Z,9.60
2018-05-23T01:47:34.017Z,9.90
2018-05-23T02:02:37.683Z,9.40
2018-05-23T02:17:36.524Z,10.00
2018-05-23T02:32:34.488Z,10.53
2018-05-23T02:47:34.487Z,11.00
2018-05-23T03:02:36.893Z,13.73
2018-05-23T03:17:34.809Z,14.00
2018-05-23T03:32:35.979Z,12.83
2018-05-23T03:47:35.988Z,13.20
2018-05-23T04:02:46.991Z,12.77
2018-05-23T04:17:37.907Z,13.87
2018-05-23T04:32:37.287Z,15.70
2018-05-23T04:47:37.277Z,14.23
2018-05-23T05:02:34.562Z,15.50
2018-05-23T05:17:34.524Z,14.30
2018-05-23T05:32:35.608Z,14.37
2018-05-23T05:47:37.556Z,21.67
2018-05-23T06:02:37.719Z,13.80
2018-05-23T06:17:35.379Z,15.20
2018-05-23T06:47:37.044Z,13.90
2018-05-23T07:02:35.181Z,13.97
2018-05-23T07:17:35.034Z,14.30
2018-05-23T07:32:35.141Z,14.00
2018-05-23T07:47:37.980Z,13.73
2018-05-23T08:02:36.211Z,12.77
2018-05-23T08:17:35.351Z,13.63
2018-05-23T08:32:37.329Z,12.40
2018-05-23T08:47:37.320Z,11.47
2018-05-23T09:02:34.852Z,11.47
2018-05-23T09:17:34.672Z,9.80
2018-05-23T09:32:34.676Z,7.87
2018-05-23T09:47:34.642Z,9.57
2018-05-23T10:02:37.004Z,8.30
2018-05-23T10:17:35.020Z,7.20
2018-05-23T10:32:36.982Z,7.90
2018-05-23T10:47:34.913Z,8.00
2018-05-23T11:02:38.315Z,8.13
2018-05-23T11:17:35.519Z,8.10
2018-05-23T11:32:35.237Z,8.47
2018-05-23T11:47:35.894Z,8.20
2018-05-23T12:02:34.644Z,8.30
2018-05-23T12:17:37.634Z,9.70
2018-05-23T12:32:34.616Z,9.40
2018-05-23T12:47:34.512Z,9.57
2018-05-23T13:02:34.925Z,9.73
2018-05-23T13:17:33.677Z,9.77
